Time;durP1;ratioP1;P1;durP2;ratioP2;P2;SDS_P1;SDS_P2;PMS_P1;PMS_P2;Temp;Humidity;BMP_temperature;BMP_pressure;BME280_temperature;BME280_humidity;BME280_pressure;Samples;Min_cycle;Max_cycle;Signal;HPM_P1;HPM_P2
2022/02/01 00:00:44;;;;;;;1.65;1.65;;;4.50;90.50;;;;;;5060070;28;20201;-72
2022/02/01 00:03:13;;;;;;;1.58;1.58;;;4.50;90.70;;;;;;5066429;28;20285;-74
2022/02/01 00:05:46;;;;;;;2.25;2.15;;;4.50;90.80;;;;;;5061229;28;20598;-72
2022/02/01 00:08:24;;;;;;;1.77;1.77;;;4.50;91.30;;;;;;5064120;28;20226;-71
2022/02/01 00:11:00;;;;;;;2.38;2.28;;;4.50;90.90;;;;;;5060996;28;20330;-73
2022/02/01 00:13:37;;;;;;;2.10;2.00;;;4.50;90.80;;;;;;5062629;28;20198;-72
2022/02/01 00:16:41;;;;;;;1.50;1.50;;;4.50;90.70;;;;;;5069190;28;20275;-74
2022/02/01 00:19:34;;;;;;;1.40;1.40;;;4.50;90.60;;;;;;5064125;28;20229;-73
2022/02/01 00:35:48;;;;;;;1.60;1.60;;;4.30;91.20;;;;;;5061981;28;20592;-74
2022/02/01 00:38:20;;;;;;;1.65;1.65;;;4.30;91.20;;;;;;5064660;28;20218;-72
2022/02/01 00:40:54;;;;;;;1.92;1.92;;;4.20;91.30;;;;;;5061164;28;20202;-72
2022/02/01 00:43:21;;;;;;;1.73;1.63;;;4.20;91.30;;;;;;5064882;28;20198;-73
2022/02/01 00:45:48;;;;;;;1.73;1.63;;;4.20;91.40;;;;;;5073169;22;20217;-63
2022/02/01 00:48:15;;;;;;;1.80;1.75;;;4.10;91.70;;;;;;5007392;28;20207;-64
2022/02/01 00:50:42;;;;;;;1.88;1.77;;;4.10;91.60;;;;;;5004316;28;20207;-64
2022/02/01 00:53:09;;;;;;;1.80;1.80;;;4.10;91.60;;;;;;5008038;28;20286;-64
2022/02/01 00:55:36;;;;;;;2.22;2.13;;;4.10;91.60;;;;;;5009044;28;20192;-64
2022/02/01 00:58:04;;;;;;;1.85;1.80;;;4.00;91.70;;;;;;5002914;28;20227;-64
2022/02/01 01:00:32;;;;;;;2.50;2.40;;;4.00;91.70;;;;;;5004858;28;20274;-64
2022/02/01 01:02:59;;;;;;;2.30;2.20;;;4.00;91.70;;;;;;5006736;28;20225;-64
2022/02/01 01:05:26;;;;;;;1.83;1.83;;;4.00;91.60;;;;;;5009131;28;20720;-64
2022/02/01 01:07:53;;;;;;;2.38;2.28;;;4.00;91.70;;;;;;5005941;28;20220;-64
2022/02/01 01:10:20;;;;;;;1.83;1.83;;;4.00;91.60;;;;;;5005154;28;20480;-63
2022/02/01 01:12:56;;;;;;;1.92;1.88;;;4.00;91.60;;;;;;5007873;28;20228;-64
2022/02/01 01:15:27;;;;;;;2.08;2.03;;;3.90;91.70;;;;;;5004651;28;20287;-64
2022/02/01 01:45:34;;;;;;;1.90;1.90;;;4.00;92.20;;;;;;4994353;28;20741;-64
2022/02/01 01:53:31;;;;;;;1.95;1.95;;;4.00;91.80;;;;;;5010448;28;20273;-63
2022/02/01 01:55:58;;;;;;;2.35;2.25;;;4.00;92.00;;;;;;5006621;28;20216;-64
2022/02/01 01:58:26;;;;;;;2.28;2.17;;;3.90;92.30;;;;;;5006913;28;20227;-64
2022/02/01 02:03:39;;;;;;;2.13;2.03;;;3.80;92.60;;;;;;5009689;28;20335;-63
2022/02/01 02:06:06;;;;;;;1.88;1.77;;;3.80;92.50;;;;;;5008290;28;20307;-64
2022/02/01 02:08:33;;;;;;;2.30;2.20;;;3.80;92.60;;;;;;5007744;28;20216;-64
2022/02/01 02:11:04;;;;;;;2.03;1.92;;;3.80;92.60;;;;;;5005524;28;20279;-64
2022/02/01 02:16:18;;;;;;;2.17;2.13;;;3.90;92.70;;;;;;5010277;28;20215;-65
2022/02/01 02:18:47;;;;;;;1.67;1.67;;;3.90;92.50;;;;;;5010049;28;20340;-64
2022/02/01 02:21:17;;;;;;;2.42;2.33;;;3.90;92.50;;;;;;5007344;28;20201;-64
2022/02/01 02:23:44;;;;;;;2.03;2.03;;;3.90;92.50;;;;;;5005038;28;20266;-64
2022/02/01 02:26:15;;;;;;;2.30;2.20;;;4.00;92.60;;;;;;5009106;28;20226;-64
2022/02/01 02:28:44;;;;;;;1.83;1.75;;;4.00;92.60;;;;;;5007965;28;21560;-63
2022/02/01 02:31:12;;;;;;;2.45;2.35;;;4.00;92.60;;;;;;5008831;28;20725;-64
2022/02/01 02:33:39;;;;;;;1.98;1.98;;;4.00;92.70;;;;;;5006271;28;20859;-63
2022/02/01 02:36:12;;;;;;;2.05;1.95;;;4.00;92.70;;;;;;5006232;28;20583;-63
2022/02/01 02:38:44;;;;;;;1.60;1.60;;;4.00;92.60;;;;;;5009564;28;20300;-63
2022/02/01 02:41:32;;;;;;;2.13;2.03;;;4.00;92.90;;;;;;5010004;28;20196;-64
2022/02/01 02:46:50;;;;;;;1.70;1.70;;;3.90;92.90;;;;;;5008997;28;20234;-64
2022/02/01 02:49:18;;;;;;;1.95;1.85;;;3.90;92.70;;;;;;5010936;28;20231;-64
2022/02/01 02:51:46;;;;;;;1.85;1.85;;;3.90;92.80;;;;;;5010875;28;20789;-64
2022/02/01 02:54:17;;;;;;;2.10;2.00;;;4.00;93.00;;;;;;5011911;28;20228;-64
2022/02/01 02:56:46;;;;;;;2.03;2.03;;;4.00;92.90;;;;;;5010247;28;20216;-64
2022/02/01 02:59:14;;;;;;;1.80;1.80;;;4.00;93.00;;;;;;5008918;28;20725;-63
2022/02/01 03:01:41;;;;;;;2.33;2.22;;;3.90;93.20;;;;;;5011384;28;20196;-63
2022/02/01 03:04:08;;;;;;;2.00;2.00;;;3.90;93.20;;;;;;5005429;28;20219;-64
2022/02/01 03:06:36;;;;;;;2.80;2.70;;;3.80;93.40;;;;;;5012225;28;20231;-63
2022/02/01 03:09:03;;;;;;;2.42;2.33;;;3.80;93.40;;;;;;5007822;28;20804;-63
2022/02/01 03:11:31;;;;;;;2.30;2.20;;;3.70;93.50;;;;;;5008216;28;20204;-64
2022/02/01 03:13:59;;;;;;;2.33;2.22;;;3.60;93.50;;;;;;5009852;28;20220;-64
2022/02/01 03:16:46;;;;;;;2.63;2.53;;;3.60;93.40;;;;;;5013847;28;20217;-63
2022/02/01 03:21:58;;;;;;;2.53;2.42;;;3.70;93.30;;;;;;5007133;28;20210;-63
2022/02/01 03:24:25;;;;;;;2.42;2.33;;;3.80;93.20;;;;;;5009609;28;20651;-64
2022/02/01 03:26:53;;;;;;;1.70;1.70;;;3.80;93.20;;;;;;5009708;28;20276;-64
2022/02/01 03:29:20;;;;;;;2.45;2.35;;;3.80;93.20;;;;;;5011526;28;20290;-64
2022/02/01 03:31:47;;;;;;;2.30;2.20;;;3.80;93.40;;;;;;5008787;28;20200;-64
2022/02/01 03:34:14;;;;;;;2.53;2.42;;;3.90;93.30;;;;;;5008649;28;20231;-63
2022/02/01 03:36:41;;;;;;;2.70;2.60;;;3.90;93.50;;;;;;5011398;28;20224;-64
2022/02/01 03:39:08;;;;;;;2.40;2.30;;;3.80;93.70;;;;;;5010174;28;20227;-64
2022/02/01 03:41:35;;;;;;;2.33;2.22;;;3.80;93.80;;;;;;5012981;28;20652;-64
2022/02/01 03:44:05;;;;;;;2.42;2.33;;;3.80;94.00;;;;;;5006981;28;20788;-64
2022/02/01 03:46:33;;;;;;;2.15;2.05;;;3.80;93.90;;;;;;5009757;28;20216;-64
2022/02/01 03:49:00;;;;;;;2.63;2.53;;;3.70;94.10;;;;;;5007425;28;20278;-63
2022/02/01 03:51:27;;;;;;;2.20;2.15;;;3.70;94.40;;;;;;5009352;28;20208;-63
2022/02/01 03:53:54;;;;;;;2.20;2.10;;;3.60;94.70;;;;;;5009005;28;20203;-64
2022/02/01 03:56:21;;;;;;;2.22;2.13;;;3.60;94.80;;;;;;5008590;28;20711;-64
2022/02/01 03:58:48;;;;;;;2.30;2.20;;;3.60;94.70;;;;;;5006597;28;20200;-63
2022/02/01 04:01:16;;;;;;;2.20;2.10;;;3.70;95.00;;;;;;5007275;28;20204;-64
2022/02/01 04:03:43;;;;;;;2.15;2.05;;;3.70;94.80;;;;;;5013290;28;20706;-64
2022/02/01 04:06:10;;;;;;;2.63;2.50;;;3.80;94.80;;;;;;5007632;28;20271;-64
2022/02/01 04:08:40;;;;;;;2.17;2.08;;;4.00;94.60;;;;;;5012671;28;20196;-64
2022/02/01 04:11:07;;;;;;;2.10;2.00;;;4.10;94.40;;;;;;5005719;28;20499;-63
2022/02/01 04:13:34;;;;;;;2.65;2.55;;;4.20;94.40;;;;;;5007059;28;20259;-63
2022/02/01 04:16:01;;;;;;;2.22;2.13;;;4.20;94.40;;;;;;5004986;28;20224;-64
2022/02/01 04:18:29;;;;;;;2.72;2.63;;;4.30;94.50;;;;;;5004140;28;20201;-64
2022/02/01 04:20:56;;;;;;;2.20;2.10;;;4.20;94.60;;;;;;5008796;28;20216;-63
2022/02/01 04:23:23;;;;;;;2.42;2.33;;;4.10;94.90;;;;;;5009333;28;20820;-64
2022/02/01 04:25:51;;;;;;;2.80;2.70;;;4.10;94.90;;;;;;5014185;28;20215;-64
2022/02/01 04:28:18;;;;;;;2.20;2.10;;;4.10;95.10;;;;;;5007687;28;20609;-64
2022/02/01 04:30:45;;;;;;;2.53;2.42;;;4.00;95.00;;;;;;5012395;28;20227;-64
2022/02/01 04:33:12;;;;;;;2.33;2.22;;;4.10;95.00;;;;;;5007279;28;20259;-64
2022/02/01 04:35:41;;;;;;;2.17;2.08;;;4.20;95.00;;;;;;5009258;28;20216;-64
2022/02/01 04:38:08;;;;;;;1.98;1.88;;;4.30;94.90;;;;;;5004380;28;20283;-64
2022/02/01 04:40:35;;;;;;;2.40;2.30;;;4.30;94.80;;;;;;5009018;28;20361;-63
2022/02/01 04:43:04;;;;;;;2.22;2.13;;;4.40;94.70;;;;;;5006415;28;20200;-63
2022/02/01 04:45:31;;;;;;;2.55;2.45;;;4.50;94.60;;;;;;5005934;28;20500;-63
2022/02/01 04:47:58;;;;;;;2.92;2.47;;;4.50;94.60;;;;;;5009000;28;20216;-64
2022/02/01 04:50:28;;;;;;;2.40;2.30;;;4.40;94.90;;;;;;5007261;28;20828;-64
2022/02/01 04:52:57;;;;;;;2.10;2.00;;;4.40;94.90;;;;;;5014357;28;20198;-65
2022/02/01 04:55:29;;;;;;;2.58;2.47;;;4.30;95.40;;;;;;5001614;28;20299;-64
2022/02/01 04:57:56;;;;;;;2.67;2.58;;;4.20;95.70;;;;;;5006750;28;20433;-64
2022/02/01 05:00:26;;;;;;;2.67;2.58;;;4.00;96.00;;;;;;5005726;28;20602;-63
2022/02/01 05:02:54;;;;;;;2.60;2.50;;;3.90;96.30;;;;;;5010190;28;20187;-63
2022/02/01 05:05:28;;;;;;;2.58;2.47;;;3.80;96.50;;;;;;5008218;28;20298;-63
2022/02/01 05:08:01;;;;;;;2.15;2.05;;;3.80;96.80;;;;;;5009298;28;20215;-64
2022/02/01 05:10:29;;;;;;;2.70;2.55;;;3.70;96.80;;;;;;5009191;28;20236;-64
2022/02/01 05:13:04;;;;;;;2.63;2.53;;;3.70;97.00;;;;;;5009924;28;20200;-64
2022/02/01 05:15:31;;;;;;;2.50;2.40;;;3.70;96.80;;;;;;5008304;28;20251;-63
2022/02/01 05:17:58;;;;;;;2.45;2.35;;;3.70;97.20;;;;;;5008805;28;20192;-63
2022/02/01 05:20:40;;;;;;;2.47;2.33;;;3.80;97.50;;;;;;5010300;28;21376;-64
2022/02/01 05:23:08;;;;;;;2.38;2.28;;;3.80;97.20;;;;;;5007314;28;20195;-63
2022/02/01 05:25:36;;;;;;;3.00;2.80;;;3.80;97.70;;;;;;5003136;28;20848;-63
2022/02/01 05:28:03;;;;;;;2.55;2.45;;;3.80;97.60;;;;;;5004790;28;20748;-63
2022/02/01 05:30:30;;;;;;;2.60;2.50;;;3.70;97.50;;;;;;5010555;28;20220;-64
2022/02/01 05:32:57;;;;;;;2.50;2.40;;;3.70;97.90;;;;;;5028072;28;20207;-63
2022/02/01 05:35:24;;;;;;;2.53;2.42;;;3.70;98.30;;;;;;5029931;28;20243;-64
2022/02/01 05:37:52;;;;;;;3.10;2.90;;;3.70;98.30;;;;;;5031005;28;20250;-64
2022/02/01 05:40:20;;;;;;;2.90;2.70;;;3.60;98.40;;;;;;5010368;28;20270;-63
2022/02/01 05:42:58;;;;;;;2.63;2.53;;;3.60;98.50;;;;;;5011373;28;20283;-65
2022/02/01 05:45:25;;;;;;;2.78;2.67;;;3.60;98.60;;;;;;5008481;28;20215;-64
2022/02/01 05:47:53;;;;;;;2.55;2.45;;;3.70;98.20;;;;;;5005971;28;20232;-63
2022/02/01 05:50:20;;;;;;;2.70;2.60;;;3.80;98.40;;;;;;5004971;28;20213;-64
2022/02/01 05:52:48;;;;;;;2.65;2.50;;;4.00;98.70;;;;;;5010078;28;20192;-64
2022/02/01 05:55:15;;;;;;;2.58;2.47;;;4.00;98.40;;;;;;5009359;28;20216;-64
2022/02/01 05:57:44;;;;;;;1.90;1.90;;;4.00;98.40;;;;;;5009086;28;20216;-63
2022/02/01 06:00:12;;;;;;;2.10;2.00;;;4.10;98.40;;;;;;5008478;28;20306;-64
2022/02/01 06:02:39;;;;;;;2.72;2.63;;;4.20;98.00;;;;;;5010247;28;20205;-64
2022/02/01 06:05:08;;;;;;;2.38;2.28;;;4.30;97.80;;;;;;5009454;28;20216;-65
2022/02/01 06:07:35;;;;;;;2.50;2.40;;;4.40;97.90;;;;;;5004670;28;20686;-64
2022/02/01 06:10:02;;;;;;;2.45;2.35;;;4.50;98.20;;;;;;5007225;28;20223;-65
2022/02/01 06:12:29;;;;;;;2.53;2.42;;;4.50;98.30;;;;;;5007491;28;20212;-63
2022/02/01 06:14:57;;;;;;;2.30;2.20;;;4.50;98.10;;;;;;5005655;28;20270;-64
2022/02/01 06:17:24;;;;;;;2.70;2.60;;;4.50;97.90;;;;;;5010105;28;20213;-63
2022/02/01 06:19:51;;;;;;;2.10;2.00;;;4.60;97.70;;;;;;5008393;28;20294;-64
2022/02/01 06:22:18;;;;;;;1.80;1.80;;;4.70;97.60;;;;;;5012724;28;20200;-64
2022/02/01 06:24:46;;;;;;;2.60;2.50;;;4.80;97.40;;;;;;5010007;28;20232;-64
2022/02/01 06:27:13;;;;;;;2.60;2.50;;;5.00;97.20;;;;;;5010758;28;20223;-64
2022/02/01 06:29:40;;;;;;;2.00;2.00;;;5.10;97.00;;;;;;5014065;28;20223;-64
2022/02/01 06:32:09;;;;;;;2.78;2.67;;;5.20;96.80;;;;;;5007700;28;20198;-64
2022/02/01 06:34:36;;;;;;;2.67;2.55;;;5.10;97.30;;;;;;5010648;28;20192;-64
2022/02/01 06:37:03;;;;;;;2.55;2.45;;;4.90;98.20;;;;;;5013638;28;20212;-64
2022/02/01 06:39:30;;;;;;;2.85;2.60;;;4.70;98.50;;;;;;5011589;28;20590;-64
2022/02/01 06:41:57;;;;;;;2.13;2.00;;;4.50;98.70;;;;;;5017353;28;20258;-65
2022/02/01 06:44:25;;;;;;;1.75;1.75;;;4.30;99.00;;;;;;5008673;28;20192;-64
2022/02/01 06:46:52;;;;;;;3.63;2.08;;;4.40;97.80;;;;;;5072106;22;20645;-74
2022/02/01 06:49:20;;;;;;;2.38;2.28;;;4.50;98.70;;;;;;5047937;28;20199;-70
2022/02/01 06:51:47;;;;;;;2.55;2.45;;;4.50;99.40;;;;;;5046236;28;20223;-73
2022/02/01 06:54:15;;;;;;;2.33;2.08;;;4.30;99.50;;;;;;5046996;28;20571;-74
2022/02/01 06:56:42;;;;;;;2.50;2.40;;;4.20;99.70;;;;;;5047316;28;20582;-75
2022/02/01 06:59:09;;;;;;;2.45;2.35;;;4.30;99.10;;;;;;5051986;28;20218;-75
2022/02/01 07:01:36;;;;;;;2.65;2.55;;;4.50;98.10;;;;;;5047882;28;20290;-79
2022/02/01 07:04:04;;;;;;;2.13;2.03;;;4.70;97.60;;;;;;5050778;28;20727;-77
2022/02/01 07:06:34;;;;;;;3.00;2.70;;;5.00;96.40;;;;;;5041580;28;20223;-77
2022/02/01 07:09:03;;;;;;;3.35;3.15;;;5.30;96.20;;;;;;5045950;28;20309;-79
2022/02/01 07:11:30;;;;;;;3.38;3.15;;;5.30;97.90;;;;;;5048041;28;20298;-78
2022/02/01 07:13:57;;;;;;;3.80;3.05;;;5.00;98.20;;;;;;5053949;28;20542;-74
2022/02/01 07:16:24;;;;;;;2.58;2.47;;;4.90;99.10;;;;;;5044403;28;20402;-76
2022/02/01 07:18:51;;;;;;;2.83;2.70;;;4.70;98.70;;;;;;5040503;28;20676;-76
2022/02/01 07:21:19;;;;;;;2.55;2.45;;;4.70;99.50;;;;;;5041095;28;20449;-78
2022/02/01 07:23:47;;;;;;;2.30;2.20;;;4.60;99.60;;;;;;5042173;28;20269;-80
2022/02/01 07:26:14;;;;;;;2.42;2.33;;;4.70;99.10;;;;;;5042102;28;20227;-76
2022/02/01 07:28:41;;;;;;;2.63;2.53;;;4.80;98.30;;;;;;5046438;28;20223;-79
2022/02/01 07:31:09;;;;;;;2.72;2.63;;;4.90;99.00;;;;;;5042430;28;20268;-77
2022/02/01 07:33:38;;;;;;;3.05;2.88;;;4.80;99.00;;;;;;5042272;28;20333;-76
2022/02/01 07:36:06;;;;;;;2.40;2.30;;;4.80;98.90;;;;;;5039107;28;20559;-76
2022/02/01 07:38:34;;;;;;;2.00;1.90;;;4.90;98.40;;;;;;5042277;28;20220;-76
2022/02/01 07:41:02;;;;;;;2.70;2.60;;;5.20;97.60;;;;;;5038623;28;20222;-76
2022/02/01 07:43:31;;;;;;;2.30;2.20;;;5.40;97.10;;;;;;5041161;28;20253;-78
2022/02/01 07:46:04;;;;;;;2.40;2.30;;;5.60;96.60;;;;;;5036401;28;20231;-78
2022/02/01 07:48:31;;;;;;;2.70;2.60;;;5.80;96.40;;;;;;5041838;28;20229;-79
2022/02/01 07:50:58;;;;;;;2.95;2.80;;;5.80;96.80;;;;;;5032924;28;20223;-77
2022/02/01 07:53:25;;;;;;;3.10;2.90;;;6.00;97.50;;;;;;5033043;28;20195;-79
2022/02/01 07:55:52;;;;;;;3.05;2.90;;;6.60;97.40;;;;;;5036009;28;20222;-79
2022/02/01 07:58:21;;;;;;;2.92;2.75;;;7.30;96.80;;;;;;5036548;28;20223;-78
2022/02/01 08:00:48;;;;;;;3.25;3.00;;;7.80;96.10;;;;;;5034670;28;20640;-79
2022/02/01 08:03:15;;;;;;;2.75;2.65;;;8.20;95.70;;;;;;5038331;28;20740;-79
2022/02/01 08:05:42;;;;;;;2.38;2.28;;;8.50;95.40;;;;;;5035680;28;20700;-76
2022/02/01 08:08:09;;;;;;;2.90;2.70;;;8.80;95.30;;;;;;5037581;28;20214;-77
2022/02/01 08:10:43;;;;;;;2.60;2.42;;;9.00;94.90;;;;;;5031626;28;20305;-73
2022/02/01 08:18:54;;;;;;;2.20;2.10;;;9.60;93.70;;;;;;5038757;28;20275;-80
2022/02/01 08:21:25;;;;;;;2.03;1.83;;;9.80;92.70;;;;;;5035669;28;20702;-78
2022/02/01 08:23:53;;;;;;;2.00;1.90;;;10.00;92.20;;;;;;5037509;28;20199;-75
2022/02/01 08:26:20;;;;;;;1.90;1.80;;;10.30;92.00;;;;;;5033433;28;20237;-76
2022/02/01 08:28:47;;;;;;;2.10;2.00;;;10.60;91.20;;;;;;5034110;28;20716;-74
2022/02/01 08:31:17;;;;;;;1.98;1.88;;;10.60;90.60;;;;;;5033152;28;20218;-74
2022/02/01 08:33:44;;;;;;;3.15;2.95;;;10.60;90.40;;;;;;5031831;28;20236;-74
2022/02/01 08:36:11;;;;;;;2.75;2.25;;;10.60;90.00;;;;;;5035169;28;20577;-76
2022/02/01 08:38:39;;;;;;;3.90;1.52;;;10.60;89.40;;;;;;5030280;28;20211;-75
2022/02/01 08:41:06;;;;;;;2.00;1.90;;;10.60;88.50;;;;;;5028798;28;20230;-75
2022/02/01 08:43:33;;;;;;;2.65;1.70;;;10.80;87.70;;;;;;5031603;28;20942;-75
2022/02/01 08:46:00;;;;;;;15.70;1.70;;;10.80;87.40;;;;;;5031267;28;20572;-75
2022/02/01 08:48:29;;;;;;;3.35;1.90;;;10.90;87.30;;;;;;5033212;28;20222;-77
2022/02/01 08:51:00;;;;;;;2.67;2.45;;;10.90;87.00;;;;;;5033107;28;20611;-75
2022/02/01 08:53:35;;;;;;;2.38;1.40;;;11.00;86.80;;;;;;5031868;28;20199;-78
2022/02/01 08:56:06;;;;;;;1.63;1.52;;;11.10;86.30;;;;;;5033486;28;20218;-75
2022/02/01 08:58:33;;;;;;;1.67;1.33;;;11.20;86.00;;;;;;5038449;28;20211;-74
2022/02/01 09:01:00;;;;;;;1.70;1.30;;;11.40;85.90;;;;;;5035510;28;20309;-76
2022/02/01 09:03:31;;;;;;;1.45;1.35;;;11.50;85.00;;;;;;5033282;28;20203;-76
2022/02/01 09:05:58;;;;;;;2.20;1.48;;;11.40;84.60;;;;;;5040599;28;20211;-73
2022/02/01 09:08:25;;;;;;;1.55;1.45;;;11.40;83.80;;;;;;5041464;28;20222;-73
2022/02/01 09:10:53;;;;;;;1.38;1.38;;;11.60;83.70;;;;;;5033620;28;20243;-74
2022/02/01 09:13:21;;;;;;;3.60;1.30;;;11.60;83.10;;;;;;5037907;28;20282;-75
2022/02/01 09:15:48;;;;;;;1.02;1.02;;;11.60;82.50;;;;;;5032603;28;20705;-81
2022/02/01 09:18:15;;;;;;;4.32;1.20;;;11.70;82.40;;;;;;5031201;28;20219;-77
2022/02/01 09:20:45;;;;;;;1.50;1.40;;;11.80;81.70;;;;;;5035281;28;20713;-79
2022/02/01 09:23:12;;;;;;;1.30;1.20;;;11.80;81.60;;;;;;5040608;28;20209;-78
2022/02/01 09:25:39;;;;;;;1.50;1.05;;;11.80;82.00;;;;;;5040253;28;20222;-78
2022/02/01 09:28:07;;;;;;;1.25;1.25;;;11.80;81.30;;;;;;5036225;28;20477;-77
2022/02/01 09:30:34;;;;;;;1.15;1.15;;;11.80;80.50;;;;;;5035030;28;20222;-80
2022/02/01 09:33:01;;;;;;;4.22;1.38;;;11.90;80.90;;;;;;5031470;28;20195;-76
2022/02/01 09:35:29;;;;;;;2.13;1.30;;;12.20;80.10;;;;;;5037541;28;20405;-77
2022/02/01 09:37:57;;;;;;;8.00;1.30;;;13.00;79.20;;;;;;5034092;28;20219;-74
2022/02/01 09:40:25;;;;;;;3.08;0.93;;;14.20;74.60;;;;;;5034836;28;20752;-77
2022/02/01 09:42:52;;;;;;;1.20;1.10;;;15.30;71.00;;;;;;5041825;28;20199;-76
2022/02/01 09:45:19;;;;;;;2.00;1.02;;;16.10;68.10;;;;;;5041952;28;20195;-77
2022/02/01 09:47:46;;;;;;;2.13;1.10;;;16.20;67.00;;;;;;5037740;28;20227;-73
2022/02/01 09:50:15;;;;;;;1.20;1.20;;;15.60;67.80;;;;;;5039219;28;20187;-79
2022/02/01 09:52:43;;;;;;;4.25;1.15;;;14.80;69.80;;;;;;5038825;28;20744;-77
2022/02/01 09:55:14;;;;;;;5.22;1.35;;;13.90;72.10;;;;;;5046158;28;20195;-79
2022/02/01 09:57:44;;;;;;;2.00;1.30;;;13.40;73.10;;;;;;5043087;28;20223;-76
2022/02/01 10:00:16;;;;;;;1.20;1.20;;;13.00;73.90;;;;;;5042422;28;20191;-75
2022/02/01 10:02:46;;;;;;;0.80;0.80;;;12.90;73.90;;;;;;5040231;28;20231;-77
2022/02/01 10:05:15;;;;;;;2.25;1.10;;;12.60;72.90;;;;;;5039167;28;20206;-79
2022/02/01 10:07:51;;;;;;;4.95;1.35;;;12.70;74.50;;;;;;5037200;28;20274;-76
2022/02/01 10:10:24;;;;;;;1.80;1.20;;;12.80;73.40;;;;;;5039452;28;20219;-76
2022/02/01 10:12:59;;;;;;;1.08;1.08;;;13.00;73.90;;;;;;5037452;28;20286;-75
2022/02/01 10:15:27;;;;;;;1.83;1.10;;;13.10;73.80;;;;;;5041737;28;20205;-75
2022/02/01 10:18:00;;;;;;;1.42;1.33;;;13.20;73.50;;;;;;5038979;28;20230;-74
2022/02/01 10:20:36;;;;;;;1.05;1.05;;;13.40;73.80;;;;;;5036894;28;20742;-73
2022/02/01 10:23:17;;;;;;;1.52;1.48;;;13.30;70.90;;;;;;5040398;28;20191;-73
2022/02/01 10:25:58;;;;;;;2.83;1.00;;;13.10;70.60;;;;;;5036183;28;20226;-76
2022/02/01 10:28:27;;;;;;;1.30;1.30;;;12.90;70.40;;;;;;5035847;28;20214;-76
2022/02/01 10:30:56;;;;;;;1.58;1.27;;;12.80;70.60;;;;;;5038104;28;20309;-76
2022/02/01 10:36:23;;;;;;;1.65;1.35;;;12.90;68.90;;;;;;4981782;28;20228;-74
2022/02/01 10:38:50;;;;;;;2.95;2.05;;;12.70;69.90;;;;;;5018778;28;20731;-79
2022/02/01 10:41:19;;;;;;;6.25;2.53;;;12.90;70.20;;;;;;5035523;28;20693;-76
2022/02/01 10:43:52;;;;;;;2.35;1.85;;;12.90;69.20;;;;;;5036843;28;20198;-78
2022/02/01 10:46:21;;;;;;;2.80;1.33;;;13.00;69.10;;;;;;5032835;28;20229;-75
2022/02/01 10:48:50;;;;;;;1.10;1.10;;;13.00;68.80;;;;;;5032871;28;20224;-77
2022/02/01 10:51:19;;;;;;;1.20;1.10;;;13.10;68.60;;;;;;5037029;28;20300;-75
2022/02/01 10:53:47;;;;;;;2.10;1.00;;;13.20;68.20;;;;;;5031838;28;20623;-82
2022/02/01 10:56:17;;;;;;;1.30;1.10;;;13.20;67.70;;;;;;5035357;28;20227;-76
2022/02/01 10:58:46;;;;;;;2.30;1.15;;;13.30;67.30;;;;;;5039659;28;20192;-76
2022/02/01 11:01:14;;;;;;;1.27;1.02;;;13.30;67.00;;;;;;5032982;28;20219;-75
2022/02/01 11:03:43;;;;;;;1.10;1.10;;;13.50;66.90;;;;;;5040630;28;20252;-80
2022/02/01 11:06:11;;;;;;;1.63;1.30;;;13.70;66.80;;;;;;5040087;28;20305;-78
2022/02/01 11:08:41;;;;;;;1.35;1.25;;;13.70;65.50;;;;;;5036144;28;20238;-77
2022/02/01 11:11:17;;;;;;;6.93;1.27;;;13.60;63.70;;;;;;5033181;28;20732;-75
2022/02/01 11:13:48;;;;;;;1.00;1.00;;;13.20;63.90;;;;;;5035184;28;20665;-73
2022/02/01 11:16:19;;;;;;;1.10;1.10;;;13.40;64.60;;;;;;5042447;28;20245;-73
2022/02/01 11:18:56;;;;;;;1.77;1.10;;;13.40;64.10;;;;;;5039450;28;20187;-75
2022/02/01 11:21:24;;;;;;;2.97;1.10;;;13.50;63.20;;;;;;5036156;28;20560;-73
2022/02/01 11:23:55;;;;;;;0.90;0.90;;;13.20;63.30;;;;;;5033527;28;20196;-73
2022/02/01 11:26:29;;;;;;;0.70;0.70;;;13.30;64.00;;;;;;5033782;28;20396;-74
2022/02/01 11:31:56;;;;;;;1.92;1.30;;;13.30;62.60;;;;;;5003514;28;20637;-76
2022/02/01 11:34:28;;;;;;;2.50;1.27;;;13.40;61.80;;;;;;5035486;28;20225;-71
2022/02/01 11:36:57;;;;;;;3.22;1.20;;;13.30;61.30;;;;;;5033743;28;20337;-77
2022/02/01 11:39:25;;;;;;;3.03;1.10;;;13.30;61.30;;;;;;5035693;28;20235;-76
2022/02/01 11:41:53;;;;;;;2.35;1.23;;;13.30;61.10;;;;;;5037518;28;20234;-75
2022/02/01 11:44:25;;;;;;;1.05;1.05;;;13.20;61.20;;;;;;5033630;28;20202;-70
2022/02/01 11:47:08;;;;;;;2.55;1.13;;;13.30;61.50;;;;;;5036216;28;20670;-75
2022/02/01 11:49:37;;;;;;;3.22;1.30;;;13.50;60.90;;;;;;5036847;28;20398;-74
2022/02/01 11:52:09;;;;;;;1.15;1.15;;;13.40;59.80;;;;;;5030314;28;20258;-76
2022/02/01 11:54:37;;;;;;;1.23;0.80;;;13.50;60.20;;;;;;5035956;28;20199;-77
2022/02/01 11:57:15;;;;;;;1.15;0.98;;;13.30;59.50;;;;;;5033694;28;20650;-74
2022/02/01 11:59:56;;;;;;;1.70;0.90;;;13.30;59.40;;;;;;5035803;28;20187;-74
2022/02/01 12:02:35;;;;;;;1.25;1.25;;;13.20;59.10;;;;;;5033472;28;20214;-76
2022/02/01 12:05:10;;;;;;;1.30;1.20;;;13.20;59.30;;;;;;5032518;28;20219;-74
2022/02/01 12:07:50;;;;;;;0.88;0.88;;;13.30;59.40;;;;;;5034304;28;20222;-74
2022/02/01 12:10:18;;;;;;;1.00;1.00;;;13.30;58.30;;;;;;5035007;28;20596;-76
2022/02/01 12:12:46;;;;;;;1.38;1.27;;;13.30;58.50;;;;;;5025516;28;20223;-77
2022/02/01 12:15:15;;;;;;;1.10;1.00;;;13.50;58.80;;;;;;5031897;28;20246;-78
2022/02/01 12:17:49;;;;;;;0.73;0.73;;;13.60;58.70;;;;;;5035126;28;20223;-73
2022/02/01 12:20:18;;;;;;;1.60;1.20;;;13.40;57.60;;;;;;5021569;28;20282;-71
2022/02/01 12:23:12;;;;;;;1.20;1.20;;;13.30;57.60;;;;;;5032832;28;20222;-73
2022/02/01 12:25:39;;;;;;;1.10;1.10;;;13.30;57.50;;;;;;5031715;28;20566;-71
2022/02/01 12:28:15;;;;;;;2.47;1.20;;;13.40;58.00;;;;;;5036406;28;20234;-74
2022/02/01 12:30:44;;;;;;;1.88;1.00;;;13.40;56.80;;;;;;5034136;28;20300;-75
2022/02/01 12:33:22;;;;;;;1.60;1.50;;;13.40;57.60;;;;;;5035740;28;20218;-77
2022/02/01 12:35:53;;;;;;;1.27;1.15;;;13.50;57.60;;;;;;5031914;28;20226;-75
2022/02/01 12:38:23;;;;;;;0.90;0.90;;;13.50;57.00;;;;;;5037880;28;20641;-73
2022/02/01 12:40:56;;;;;;;1.50;1.40;;;13.40;56.50;;;;;;5036912;28;20211;-78
2022/02/01 12:43:27;;;;;;;3.05;1.73;;;13.30;56.80;;;;;;5034764;28;20207;-78
2022/02/01 12:46:03;;;;;;;1.00;1.00;;;13.20;57.00;;;;;;5031785;28;20662;-75
2022/02/01 12:48:31;;;;;;;1.40;1.40;;;13.20;57.00;;;;;;5021999;28;20233;-75
2022/02/01 12:51:00;;;;;;;1.42;1.33;;;13.10;57.00;;;;;;5086250;22;21195;-78
2022/02/01 12:53:38;;;;;;;1.05;1.05;;;13.20;57.30;;;;;;5106408;27;20196;-80
2022/02/01 12:56:13;;;;;;;2.05;1.13;;;13.30;57.30;;;;;;5104027;27;20204;-78
2022/02/01 12:58:40;;;;;;;1.10;1.10;;;13.20;56.80;;;;;;5103717;27;20188;-79
2022/02/01 13:01:08;;;;;;;1.23;1.10;;;13.10;56.50;;;;;;5100544;27;20266;-79
2022/02/01 13:03:43;;;;;;;1.00;1.00;;;13.00;56.50;;;;;;5100744;27;20674;-79
2022/02/01 13:06:13;;;;;;;1.10;1.10;;;13.10;56.90;;;;;;5101146;27;20567;-78
2022/02/01 13:17:18;;;;;;;2.42;0.90;;;13.00;56.50;;;;;;5104040;28;20217;-79
2022/02/01 13:20:06;;;;;;;1.55;0.90;;;13.00;56.30;;;;;;5113017;27;20199;-78
2022/02/01 13:22:34;;;;;;;1.17;1.17;;;12.90;56.60;;;;;;5110087;28;20246;-78
2022/02/01 13:25:02;;;;;;;4.32;2.40;;;12.90;56.70;;;;;;5109533;27;20245;-80
2022/02/01 13:27:30;;;;;;;2.55;2.30;;;13.00;57.00;;;;;;5109455;28;20741;-79
2022/02/01 13:30:01;;;;;;;1.23;1.23;;;12.90;56.80;;;;;;5104505;28;20224;-78
2022/02/01 13:32:35;;;;;;;1.00;1.00;;;12.70;56.70;;;;;;5111555;28;20453;-78
2022/02/01 13:35:04;;;;;;;1.02;1.02;;;12.70;57.10;;;;;;5116322;28;20289;-80
2022/02/01 13:37:31;;;;;;;1.10;1.05;;;12.70;57.30;;;;;;5119774;28;20221;-79
2022/02/01 13:39:58;;;;;;;1.00;1.00;;;12.70;57.20;;;;;;5107682;28;20184;-78
2022/02/01 13:42:30;;;;;;;0.98;0.98;;;12.70;57.40;;;;;;5105444;28;20819;-79
2022/02/01 13:44:59;;;;;;;1.58;0.93;;;12.70;56.70;;;;;;5102468;28;20241;-78
2022/02/01 13:47:37;;;;;;;0.90;0.90;;;12.50;56.90;;;;;;5100078;28;20225;-79
2022/02/01 13:50:08;;;;;;;1.75;1.10;;;12.40;57.00;;;;;;5100284;28;20570;-79
2022/02/01 13:52:35;;;;;;;2.60;1.05;;;12.30;57.10;;;;;;5100232;28;20216;-78
2022/02/01 13:55:03;;;;;;;1.10;1.10;;;12.30;57.10;;;;;;5104738;28;20515;-78
2022/02/01 13:57:32;;;;;;;1.10;1.10;;;12.20;57.00;;;;;;5104843;28;20216;-79
2022/02/01 14:00:09;;;;;;;0.98;0.98;;;12.20;57.00;;;;;;5099018;28;20198;-77
2022/02/01 14:02:44;;;;;;;1.02;0.93;;;12.20;57.40;;;;;;5103065;28;20208;-77
2022/02/01 14:05:20;;;;;;;1.15;1.15;;;12.20;57.40;;;;;;5098335;28;20575;-79
2022/02/01 14:08:20;;;;;;;1.10;1.10;;;12.30;57.50;;;;;;5104569;28;20220;-77
2022/02/01 14:10:54;;;;;;;1.10;1.10;;;12.30;57.60;;;;;;5104326;28;20244;-80
2022/02/01 14:16:29;;;;;;;1.00;1.00;;;12.20;58.10;;;;;;5085140;28;20310;-76
2022/02/01 14:27:32;;;;;;;0.82;0.80;;;12.10;58.00;;;;;;5103051;28;20220;-76
2022/02/01 14:35:26;;;;;;;1.75;1.13;;;11.40;57.90;;;;;;5082152;28;20196;-76
2022/02/01 14:38:05;;;;;;;1.80;1.00;;;11.00;58.50;;;;;;5107354;28;20320;-76
2022/02/01 14:43:35;;;;;;;1.77;1.10;;;10.40;59.30;;;;;;5106391;28;20211;-77